Algowood — VCTD — position and weather

sailwx.info

Track history (hours):
 
Tides and Currents Weather Stations Pressure Air Temp Water Temp Dewpoint Dewpoint Depression Visibility Wind Speed Wind Dir Waves Ship Positions

Algowood

Last reported at 2014-Oct-01 09:33 UTC. Time now 2014-Oct-02 04:33 UTC.
Position N 43°60' W 076°32'.

Length 223 m; draft 8.1 m.

Type: Cargo ship. MMSI: 316001802.

Date/timePositionNaut miles runAvg speedWind from/ knotsBaromVisibWave heightAir tempDewpointWater temp
2014-Oct-01 09:33N 43°60' W 076°32'1010.4
2014-Oct-01 08:33N 44°07' W 076°22'10 9.4
2014-Oct-01 07:32N 44°13' W 076°12'93 6.5
2014-Sep-30 17:21N 45°08' W 074°27'7 9.2
2014-Sep-30 16:33N 45°12' W 074°18'8 8.3
2014-Sep-30 15:33N 45°14' W 074°07'7 7.2
2014-Sep-30 14:33N 45°16' W 073°57'3 2.8
2014-Sep-30 13:33N 45°18' W 073°55'1 1.0
2014-Sep-30 12:33N 45°19' W 073°55'2 2.5
2014-Sep-30 11:33N 45°21' W 073°52'7 7.3
2014-Sep-30 10:33N 45°25' W 073°43'6 5.6
2014-Sep-30 09:33N 45°24' W 073°35'1 1.3
2014-Sep-30 08:33N 45°24' W 073°33'4 4.2
2014-Sep-30 07:33N 45°28' W 073°30'2 1.7
2014-Sep-30 06:33N 45°30' W 073°31'2 2.0
2014-Sep-30 05:33N 45°32' W 073°32'2 2.4
2014-Sep-30 04:33N 45°34' W 073°31'6 6.3
2014-Sep-30 03:33N 45°40' W 073°28'8 8.0
2014-Sep-30 02:33N 45°47' W 073°22'8 8.5
2014-Sep-30 01:33N 45°53' W 073°14'9 8.4
2014-Sep-30 00:26N 46°02' W 073°10'15 8.3
2014-Sep-29 22:33N 46°12' W 072°52'9 9.2
2014-Sep-29 21:33N 46°16' W 072°40'7 7.5
2014-Sep-29 20:33N 46°20' W 072°32'9 9.2
2014-Sep-29 19:33N 46°26' W 072°21'8 8.3
2014-Sep-29 18:33N 46°32' W 072°12'9 8.8
2014-Sep-29 17:33N 46°35' W 072°00'  
2014-Sep-24 12:26N 46°41' W 071°33'17 8.9
2014-Sep-24 10:33N 46°37' W 071°57'1312.8
2014-Sep-24 09:31N 46°30' W 072°14'1010.8
2014-Sep-24 08:33N 46°24' W 072°25'1010.5
2014-Sep-24 07:33N 46°17' W 072°37'1110.8
2014-Sep-24 06:33N 46°12' W 072°51'1211.6
2014-Sep-24 05:33N 46°04' W 073°02'10 9.8
2014-Sep-24 04:33N 45°57' W 073°13'1211.8
2014-Sep-24 03:33N 45°47' W 073°21'1211.8
2014-Sep-24 02:33N 45°37' W 073°30'7 7.3
2014-Sep-24 01:33N 45°30' W 073°31'1 1.0
2014-Sep-24 00:33N 45°29' W 073°31'5 4.5
2014-Sep-23 23:33N 45°24' W 073°33'1 1.4
2014-Sep-23 22:33N 45°24' W 073°35'3 3.1
2014-Sep-23 21:33N 45°24' W 073°39'5 5.1
2014-Sep-23 20:33N 45°24' W 073°46'8 8.2
2014-Sep-23 19:33N 45°19' W 073°55'1 0.8
2014-Sep-23 18:33N 45°18' W 073°56'1 0.8
2014-Sep-23 17:33N 45°18' W 073°56'7 7.3
2014-Sep-23 16:33N 45°13' W 074°05'1010.0
2014-Sep-23 15:33N 45°12' W 074°19'96 7.4
2014-Sep-23 02:33N 44°14' W 076°07'1010.2
2014-Sep-23 01:33N 44°10' W 076°19'1110.5
2014-Sep-23 00:32N 44°01' W 076°28'  
Track history (hours):
 
Tides and Currents Weather Stations Pressure Air Temp Water Temp Dewpoint Dewpoint Depression Visibility Wind Speed Wind Dir Waves Ship Positions

Algowood

Last reported at 2014-Oct-01 09:33 UTC. Time now 2014-Oct-02 04:33 UTC.
Position N 43°60' W 076°32'.

Length 223 m; draft 8.1 m.

Type: Cargo ship. MMSI: 316001802.

Date/timePositionNaut miles runAvg speedWind from/ knotsBaromVisibWave heightAir tempDewpointWater temp
2014-Oct-01 09:33N 43°60' W 076°32'1010.4
2014-Oct-01 08:33N 44°07' W 076°22'10 9.4
2014-Oct-01 07:32N 44°13' W 076°12'93 6.5
2014-Sep-30 17:21N 45°08' W 074°27'7 9.2
2014-Sep-30 16:33N 45°12' W 074°18'8 8.3
2014-Sep-30 15:33N 45°14' W 074°07'7 7.2
2014-Sep-30 14:33N 45°16' W 073°57'3 2.8
2014-Sep-30 13:33N 45°18' W 073°55'1 1.0
2014-Sep-30 12:33N 45°19' W 073°55'2 2.5
2014-Sep-30 11:33N 45°21' W 073°52'7 7.3
2014-Sep-30 10:33N 45°25' W 073°43'6 5.6
2014-Sep-30 09:33N 45°24' W 073°35'1 1.3
2014-Sep-30 08:33N 45°24' W 073°33'4 4.2
2014-Sep-30 07:33N 45°28' W 073°30'2 1.7
2014-Sep-30 06:33N 45°30' W 073°31'2 2.0
2014-Sep-30 05:33N 45°32' W 073°32'2 2.4
2014-Sep-30 04:33N 45°34' W 073°31'6 6.3
2014-Sep-30 03:33N 45°40' W 073°28'8 8.0
2014-Sep-30 02:33N 45°47' W 073°22'8 8.5
2014-Sep-30 01:33N 45°53' W 073°14'9 8.4
2014-Sep-30 00:26N 46°02' W 073°10'15 8.3
2014-Sep-29 22:33N 46°12' W 072°52'9 9.2
2014-Sep-29 21:33N 46°16' W 072°40'7 7.5
2014-Sep-29 20:33N 46°20' W 072°32'9 9.2
2014-Sep-29 19:33N 46°26' W 072°21'8 8.3
2014-Sep-29 18:33N 46°32' W 072°12'9 8.8
2014-Sep-29 17:33N 46°35' W 072°00'  
2014-Sep-24 12:26N 46°41' W 071°33'17 8.9
2014-Sep-24 10:33N 46°37' W 071°57'1312.8
2014-Sep-24 09:31N 46°30' W 072°14'1010.8
2014-Sep-24 08:33N 46°24' W 072°25'1010.5
2014-Sep-24 07:33N 46°17' W 072°37'1110.8
2014-Sep-24 06:33N 46°12' W 072°51'1211.6
2014-Sep-24 05:33N 46°04' W 073°02'10 9.8
2014-Sep-24 04:33N 45°57' W 073°13'1211.8
2014-Sep-24 03:33N 45°47' W 073°21'1211.8
2014-Sep-24 02:33N 45°37' W 073°30'7 7.3
2014-Sep-24 01:33N 45°30' W 073°31'1 1.0
2014-Sep-24 00:33N 45°29' W 073°31'5 4.5
2014-Sep-23 23:33N 45°24' W 073°33'1 1.4
2014-Sep-23 22:33N 45°24' W 073°35'3 3.1
2014-Sep-23 21:33N 45°24' W 073°39'5 5.1
2014-Sep-23 20:33N 45°24' W 073°46'8 8.2
2014-Sep-23 19:33N 45°19' W 073°55'1 0.8
2014-Sep-23 18:33N 45°18' W 073°56'1 0.8
2014-Sep-23 17:33N 45°18' W 073°56'7 7.3
2014-Sep-23 16:33N 45°13' W 074°05'1010.0
2014-Sep-23 15:33N 45°12' W 074°19'96 7.4
2014-Sep-23 02:33N 44°14' W 076°07'1010.2
2014-Sep-23 01:33N 44°10' W 076°19'1110.5
2014-Sep-23 00:32N 44°01' W 076°28'  

Dump ship's entire track history